sensor_id;sensor_type;location;lat;lon;timestamp;temperature;humidity
60313;DHT22;46158;52.850;6.970;2022-08-19T00:01:54;21.20;78.40
60313;DHT22;46158;52.850;6.970;2022-08-19T00:04:23;21.20;78.50
60313;DHT22;46158;52.850;6.970;2022-08-19T00:06:50;21.20;78.50
60313;DHT22;46158;52.850;6.970;2022-08-19T00:09:17;21.20;78.50
60313;DHT22;46158;52.850;6.970;2022-08-19T00:11:44;21.20;78.50
60313;DHT22;46158;52.850;6.970;2022-08-19T00:14:11;21.20;78.50
60313;DHT22;46158;52.850;6.970;2022-08-19T00:16:38;21.10;78.50
60313;DHT22;46158;52.850;6.970;2022-08-19T00:19:05;21.10;78.50
60313;DHT22;46158;52.850;6.970;2022-08-19T00:21:31;21.10;78.50
60313;DHT22;46158;52.850;6.970;2022-08-19T00:23:56;21.10;78.50
60313;DHT22;46158;52.850;6.970;2022-08-19T00:26:27;21.10;78.50
60313;DHT22;46158;52.850;6.970;2022-08-19T00:28:53;21.10;78.50
60313;DHT22;46158;52.850;6.970;2022-08-19T00:31:19;21.10;78.50
60313;DHT22;46158;52.850;6.970;2022-08-19T00:33:46;21.10;78.50
60313;DHT22;46158;52.850;6.970;2022-08-19T00:36:11;21.10;78.50
60313;DHT22;46158;52.850;6.970;2022-08-19T00:38:39;21.10;78.50
60313;DHT22;46158;52.850;6.970;2022-08-19T00:41:12;21.10;78.60
60313;DHT22;46158;52.850;6.970;2022-08-19T00:43:37;21.10;78.50
60313;DHT22;46158;52.850;6.970;2022-08-19T00:46:04;21.10;78.60
60313;DHT22;46158;52.850;6.970;2022-08-19T00:48:31;21.10;78.70
60313;DHT22;46158;52.850;6.970;2022-08-19T00:50:58;21.10;78.60
60313;DHT22;46158;52.850;6.970;2022-08-19T00:53:26;21.10;79.40
60313;DHT22;46158;52.850;6.970;2022-08-19T00:55:55;21.10;78.60
60313;DHT22;46158;52.850;6.970;2022-08-19T00:58:26;21.10;78.60
60313;DHT22;46158;52.850;6.970;2022-08-19T01:00:52;21.10;78.60
60313;DHT22;46158;52.850;6.970;2022-08-19T01:03:20;21.00;78.50
60313;DHT22;46158;52.850;6.970;2022-08-19T01:05:47;21.00;78.50
60313;DHT22;46158;52.850;6.970;2022-08-19T01:08:16;21.00;78.50
60313;DHT22;46158;52.850;6.970;2022-08-19T01:10:46;21.00;78.50
60313;DHT22;46158;52.850;6.970;2022-08-19T01:13:15;21.00;78.50
60313;DHT22;46158;52.850;6.970;2022-08-19T01:15:52;21.00;78.50
60313;DHT22;46158;52.850;6.970;2022-08-19T01:18:20;21.00;78.40
60313;DHT22;46158;52.850;6.970;2022-08-19T01:20:46;21.00;78.50
60313;DHT22;46158;52.850;6.970;2022-08-19T01:23:13;21.00;78.50
60313;DHT22;46158;52.850;6.970;2022-08-19T01:25:48;21.00;78.50
60313;DHT22;46158;52.850;6.970;2022-08-19T01:28:18;21.00;78.40
60313;DHT22;46158;52.850;6.970;2022-08-19T01:30:44;21.00;78.50
60313;DHT22;46158;52.850;6.970;2022-08-19T01:33:10;21.00;78.50
60313;DHT22;46158;52.850;6.970;2022-08-19T01:35:36;21.00;78.40
60313;DHT22;46158;52.850;6.970;2022-08-19T01:38:05;21.00;78.50
60313;DHT22;46158;52.850;6.970;2022-08-19T01:40:34;20.90;78.40
60313;DHT22;46158;52.850;6.970;2022-08-19T01:43:00;20.90;78.40
60313;DHT22;46158;52.850;6.970;2022-08-19T01:45:28;20.90;78.40
60313;DHT22;46158;52.850;6.970;2022-08-19T01:47:54;20.90;78.40
60313;DHT22;46158;52.850;6.970;2022-08-19T01:50:21;20.90;78.40
60313;DHT22;46158;52.850;6.970;2022-08-19T01:52:47;20.90;79.10
60313;DHT22;46158;52.850;6.970;2022-08-19T01:55:20;20.90;78.40
60313;DHT22;46158;52.850;6.970;2022-08-19T01:57:51;20.90;78.40
60313;DHT22;46158;52.850;6.970;2022-08-19T02:00:22;20.90;78.40
60313;DHT22;46158;52.850;6.970;2022-08-19T02:02:48;20.90;78.40
60313;DHT22;46158;52.850;6.970;2022-08-19T02:05:13;20.90;78.40
60313;DHT22;46158;52.850;6.970;2022-08-19T02:07:40;20.90;78.40
60313;DHT22;46158;52.850;6.970;2022-08-19T02:10:09;20.80;78.40
60313;DHT22;46158;52.850;6.970;2022-08-19T02:12:36;20.80;78.30
60313;DHT22;46158;52.850;6.970;2022-08-19T02:15:02;20.80;78.40
60313;DHT22;46158;52.850;6.970;2022-08-19T02:17:29;20.80;78.40
60313;DHT22;46158;52.850;6.970;2022-08-19T02:19:55;20.80;78.30
60313;DHT22;46158;52.850;6.970;2022-08-19T02:22:22;20.80;78.40
60313;DHT22;46158;52.850;6.970;2022-08-19T02:24:51;20.80;78.40
60313;DHT22;46158;52.850;6.970;2022-08-19T02:27:17;20.80;78.40
60313;DHT22;46158;52.850;6.970;2022-08-19T02:29:43;20.80;78.40
60313;DHT22;46158;52.850;6.970;2022-08-19T02:32:08;20.80;78.40
60313;DHT22;46158;52.850;6.970;2022-08-19T02:34:34;20.80;78.40
60313;DHT22;46158;52.850;6.970;2022-08-19T02:37:00;20.80;78.40
60313;DHT22;46158;52.850;6.970;2022-08-19T02:39:26;20.80;78.30
60313;DHT22;46158;52.850;6.970;2022-08-19T02:41:51;20.80;78.30
60313;DHT22;46158;52.850;6.970;2022-08-19T02:44:17;20.80;78.40
60313;DHT22;46158;52.850;6.970;2022-08-19T02:46:46;20.80;78.40
60313;DHT22;46158;52.850;6.970;2022-08-19T02:49:12;20.70;78.30
60313;DHT22;46158;52.850;6.970;2022-08-19T02:51:42;20.70;78.30
60313;DHT22;46158;52.850;6.970;2022-08-19T02:54:09;20.70;78.30
60313;DHT22;46158;52.850;6.970;2022-08-19T02:56:36;20.70;78.30
60313;DHT22;46158;52.850;6.970;2022-08-19T02:59:03;20.70;78.30
60313;DHT22;46158;52.850;6.970;2022-08-19T03:01:36;20.70;78.30
60313;DHT22;46158;52.850;6.970;2022-08-19T03:04:04;20.70;78.30
60313;DHT22;46158;52.850;6.970;2022-08-19T03:06:30;20.70;78.40
60313;DHT22;46158;52.850;6.970;2022-08-19T03:08:56;20.70;78.30
60313;DHT22;46158;52.850;6.970;2022-08-19T03:11:25;20.70;78.30
60313;DHT22;46158;52.850;6.970;2022-08-19T03:13:51;20.70;78.30
60313;DHT22;46158;52.850;6.970;2022-08-19T03:16:18;20.70;78.30
60313;DHT22;46158;52.850;6.970;2022-08-19T03:18:44;20.60;78.30
60313;DHT22;46158;52.850;6.970;2022-08-19T03:21:19;20.70;78.30
60313;DHT22;46158;52.850;6.970;2022-08-19T03:23:45;20.60;78.30
60313;DHT22;46158;52.850;6.970;2022-08-19T03:26:10;20.60;79.00
60313;DHT22;46158;52.850;6.970;2022-08-19T03:28:36;20.60;78.30
60313;DHT22;46158;52.850;6.970;2022-08-19T03:31:05;20.60;78.30
60313;DHT22;46158;52.850;6.970;2022-08-19T03:33:33;20.60;78.30
60313;DHT22;46158;52.850;6.970;2022-08-19T03:36:03;20.60;78.30
60313;DHT22;46158;52.850;6.970;2022-08-19T03:38:31;20.60;78.30
60313;DHT22;46158;52.850;6.970;2022-08-19T03:40:57;20.60;78.30
60313;DHT22;46158;52.850;6.970;2022-08-19T03:43:23;20.50;78.30
60313;DHT22;46158;52.850;6.970;2022-08-19T03:46:21;20.60;78.30
60313;DHT22;46158;52.850;6.970;2022-08-19T03:48:50;20.60;78.20
60313;DHT22;46158;52.850;6.970;2022-08-19T03:51:39;20.50;78.30
60313;DHT22;46158;52.850;6.970;2022-08-19T03:54:09;20.60;78.30
60313;DHT22;46158;52.850;6.970;2022-08-19T03:56:37;20.50;78.30
60313;DHT22;46158;52.850;6.970;2022-08-19T03:59:05;20.50;78.30
60313;DHT22;46158;52.850;6.970;2022-08-19T04:01:31;20.50;78.20
60313;DHT22;46158;52.850;6.970;2022-08-19T04:03:58;20.50;78.20
60313;DHT22;46158;52.850;6.970;2022-08-19T04:06:30;20.50;78.20
60313;DHT22;46158;52.850;6.970;2022-08-19T04:08:57;20.50;78.20
60313;DHT22;46158;52.850;6.970;2022-08-19T04:11:29;20.50;78.20
60313;DHT22;46158;52.850;6.970;2022-08-19T04:13:55;20.50;78.10
60313;DHT22;46158;52.850;6.970;2022-08-19T04:16:24;20.50;78.20
60313;DHT22;46158;52.850;6.970;2022-08-19T04:18:50;20.40;78.10
60313;DHT22;46158;52.850;6.970;2022-08-19T04:21:20;20.40;78.00
60313;DHT22;46158;52.850;6.970;2022-08-19T04:23:46;20.50;78.30
60313;DHT22;46158;52.850;6.970;2022-08-19T04:26:23;20.40;78.00
60313;DHT22;46158;52.850;6.970;2022-08-19T04:28:49;20.40;78.10
60313;DHT22;46158;52.850;6.970;2022-08-19T04:31:30;20.40;78.10
60313;DHT22;46158;52.850;6.970;2022-08-19T04:33:57;20.40;78.00
60313;DHT22;46158;52.850;6.970;2022-08-19T04:36:29;20.40;78.00
60313;DHT22;46158;52.850;6.970;2022-08-19T04:38:57;20.40;78.00
60313;DHT22;46158;52.850;6.970;2022-08-19T04:41:24;20.40;78.00
60313;DHT22;46158;52.850;6.970;2022-08-19T04:44:09;20.30;77.50
60313;DHT22;46158;52.850;6.970;2022-08-19T04:46:35;20.30;76.10
60313;DHT22;46158;52.850;6.970;2022-08-19T04:49:03;20.20;75.10
60313;DHT22;46158;52.850;6.970;2022-08-19T04:51:31;20.20;74.60
60313;DHT22;46158;52.850;6.970;2022-08-19T04:53:58;20.10;74.50
60313;DHT22;46158;52.850;6.970;2022-08-19T04:56:25;20.00;74.50
60313;DHT22;46158;52.850;6.970;2022-08-19T04:58:53;20.00;74.60
60313;DHT22;46158;52.850;6.970;2022-08-19T05:01:25;19.90;74.60
60313;DHT22;46158;52.850;6.970;2022-08-19T05:03:51;19.90;74.60
60313;DHT22;46158;52.850;6.970;2022-08-19T05:06:19;19.80;74.80
60313;DHT22;46158;52.850;6.970;2022-08-19T05:08:46;19.80;75.10
60313;DHT22;46158;52.850;6.970;2022-08-19T05:11:16;19.80;75.40
60313;DHT22;46158;52.850;6.970;2022-08-19T05:13:43;19.70;75.50
60313;DHT22;46158;52.850;6.970;2022-08-19T05:16:11;19.70;75.80
60313;DHT22;46158;52.850;6.970;2022-08-19T05:18:37;19.60;76.10
60313;DHT22;46158;52.850;6.970;2022-08-19T05:21:21;19.60;76.30
60313;DHT22;46158;52.850;6.970;2022-08-19T05:24:06;19.60;76.40
60313;DHT22;46158;52.850;6.970;2022-08-19T05:26:38;19.60;76.50
60313;DHT22;46158;52.850;6.970;2022-08-19T05:29:05;19.60;76.70
60313;DHT22;46158;52.850;6.970;2022-08-19T05:31:31;19.60;76.80
60313;DHT22;46158;52.850;6.970;2022-08-19T05:33:57;19.50;76.60
60313;DHT22;46158;52.850;6.970;2022-08-19T05:36:25;19.60;76.60
60313;DHT22;46158;52.850;6.970;2022-08-19T05:38:52;19.50;76.50
60313;DHT22;46158;52.850;6.970;2022-08-19T05:41:19;19.50;76.60
60313;DHT22;46158;52.850;6.970;2022-08-19T05:43:45;19.50;76.60
60313;DHT22;46158;52.850;6.970;2022-08-19T05:46:20;19.50;76.50
60313;DHT22;46158;52.850;6.970;2022-08-19T05:48:46;19.40;76.30
60313;DHT22;46158;52.850;6.970;2022-08-19T05:51:12;19.40;76.70
60313;DHT22;46158;52.850;6.970;2022-08-19T05:53:37;19.40;77.00
60313;DHT22;46158;52.850;6.970;2022-08-19T05:56:07;19.30;77.00
60313;DHT22;46158;52.850;6.970;2022-08-19T05:58:34;19.30;77.20
60313;DHT22;46158;52.850;6.970;2022-08-19T06:01:00;19.30;77.30
60313;DHT22;46158;52.850;6.970;2022-08-19T06:03:30;19.30;77.60
60313;DHT22;46158;52.850;6.970;2022-08-19T06:05:57;19.30;77.90
60313;DHT22;46158;52.850;6.970;2022-08-19T06:08:24;19.30;78.30
60313;DHT22;46158;52.850;6.970;2022-08-19T06:10:50;19.20;78.60
60313;DHT22;46158;52.850;6.970;2022-08-19T06:13:16;19.20;79.10
60313;DHT22;46158;52.850;6.970;2022-08-19T06:15:42;19.20;79.30
60313;DHT22;46158;52.850;6.970;2022-08-19T06:18:09;19.20;79.50
60313;DHT22;46158;52.850;6.970;2022-08-19T06:20:35;19.20;79.80
60313;DHT22;46158;52.850;6.970;2022-08-19T06:23:01;19.20;80.10
60313;DHT22;46158;52.850;6.970;2022-08-19T06:25:26;19.20;80.30
60313;DHT22;46158;52.850;6.970;2022-08-19T06:27:52;19.30;80.60
60313;DHT22;46158;52.850;6.970;2022-08-19T06:30:18;19.20;80.50
60313;DHT22;46158;52.850;6.970;2022-08-19T06:32:44;19.30;80.50
60313;DHT22;46158;52.850;6.970;2022-08-19T06:35:10;19.30;80.50
60313;DHT22;46158;52.850;6.970;2022-08-19T06:37:36;19.30;80.40
60313;DHT22;46158;52.850;6.970;2022-08-19T06:40:03;19.30;80.50
60313;DHT22;46158;52.850;6.970;2022-08-19T06:42:29;19.30;80.50
60313;DHT22;46158;52.850;6.970;2022-08-19T06:44:55;19.40;80.50
60313;DHT22;46158;52.850;6.970;2022-08-19T06:47:21;19.40;80.30
60313;DHT22;46158;52.850;6.970;2022-08-19T06:49:47;19.40;80.40
60313;DHT22;46158;52.850;6.970;2022-08-19T06:52:14;19.40;80.20
60313;DHT22;46158;52.850;6.970;2022-08-19T06:54:41;19.40;80.40
60313;DHT22;46158;52.850;6.970;2022-08-19T06:57:07;19.50;80.40
60313;DHT22;46158;52.850;6.970;2022-08-19T06:59:38;19.50;80.20
60313;DHT22;46158;52.850;6.970;2022-08-19T07:02:05;19.50;80.30
60313;DHT22;46158;52.850;6.970;2022-08-19T07:04:34;19.50;80.50
60313;DHT22;46158;52.850;6.970;2022-08-19T07:07:09;19.50;80.70
60313;DHT22;46158;52.850;6.970;2022-08-19T07:09:39;19.60;80.80
60313;DHT22;46158;52.850;6.970;2022-08-19T07:12:06;19.60;80.80
60313;DHT22;46158;52.850;6.970;2022-08-19T07:14:34;19.70;80.60
60313;DHT22;46158;52.850;6.970;2022-08-19T07:17:07;19.70;80.10
60313;DHT22;46158;52.850;6.970;2022-08-19T07:19:33;19.70;80.60
60313;DHT22;46158;52.850;6.970;2022-08-19T07:22:01;19.70;80.70
60313;DHT22;46158;52.850;6.970;2022-08-19T07:24:28;19.70;80.80
60313;DHT22;46158;52.850;6.970;2022-08-19T07:26:56;19.80;81.00
60313;DHT22;46158;52.850;6.970;2022-08-19T07:29:23;19.80;81.10
60313;DHT22;46158;52.850;6.970;2022-08-19T07:31:50;19.90;81.20
60313;DHT22;46158;52.850;6.970;2022-08-19T07:34:16;19.90;81.20
60313;DHT22;46158;52.850;6.970;2022-08-19T07:36:42;19.90;81.10
60313;DHT22;46158;52.850;6.970;2022-08-19T07:39:19;19.90;81.20
60313;DHT22;46158;52.850;6.970;2022-08-19T07:41:45;20.00;81.30
60313;DHT22;46158;52.850;6.970;2022-08-19T07:44:13;20.00;81.20
60313;DHT22;46158;52.850;6.970;2022-08-19T07:46:42;20.00;81.20
60313;DHT22;46158;52.850;6.970;2022-08-19T07:49:10;20.00;81.20
60313;DHT22;46158;52.850;6.970;2022-08-19T07:51:43;20.10;81.30
60313;DHT22;46158;52.850;6.970;2022-08-19T07:54:09;20.10;81.30
60313;DHT22;46158;52.850;6.970;2022-08-19T07:56:34;20.10;81.40
60313;DHT22;46158;52.850;6.970;2022-08-19T07:59:00;20.10;81.50
60313;DHT22;46158;52.850;6.970;2022-08-19T08:01:27;20.10;81.40
60313;DHT22;46158;52.850;6.970;2022-08-19T08:03:55;20.20;81.50
60313;DHT22;46158;52.850;6.970;2022-08-19T08:06:40;20.20;81.50
60313;DHT22;46158;52.850;6.970;2022-08-19T08:09:28;20.30;81.60
60313;DHT22;46158;52.850;6.970;2022-08-19T08:11:56;20.30;81.80
60313;DHT22;46158;52.850;6.970;2022-08-19T08:14:35;20.20;81.90
60313;DHT22;46158;52.850;6.970;2022-08-19T08:17:04;20.30;81.70
60313;DHT22;46158;52.850;6.970;2022-08-19T08:19:30;20.30;81.60
60313;DHT22;46158;52.850;6.970;2022-08-19T08:21:58;20.30;81.60
60313;DHT22;46158;52.850;6.970;2022-08-19T08:24:26;20.30;81.60
60313;DHT22;46158;52.850;6.970;2022-08-19T08:26:52;20.40;81.70
60313;DHT22;46158;52.850;6.970;2022-08-19T08:29:18;20.40;81.80
60313;DHT22;46158;52.850;6.970;2022-08-19T08:31:45;20.40;81.80
60313;DHT22;46158;52.850;6.970;2022-08-19T08:34:12;20.40;81.80
60313;DHT22;46158;52.850;6.970;2022-08-19T08:36:40;20.40;81.90
60313;DHT22;46158;52.850;6.970;2022-08-19T08:39:08;20.50;81.90
60313;DHT22;46158;52.850;6.970;2022-08-19T08:41:51;20.50;82.00
60313;DHT22;46158;52.850;6.970;2022-08-19T08:46:57;20.50;82.00
60313;DHT22;46158;52.850;6.970;2022-08-19T08:49:33;20.50;82.00
60313;DHT22;46158;52.850;6.970;2022-08-19T08:52:10;20.50;82.10
60313;DHT22;46158;52.850;6.970;2022-08-19T08:54:43;20.60;82.10
60313;DHT22;46158;52.850;6.970;2022-08-19T08:57:17;20.60;82.10
60313;DHT22;46158;52.850;6.970;2022-08-19T08:59:47;20.60;82.10
60313;DHT22;46158;52.850;6.970;2022-08-19T09:02:18;20.60;82.10
60313;DHT22;46158;52.850;6.970;2022-08-19T09:04:44;20.60;82.10
60313;DHT22;46158;52.850;6.970;2022-08-19T09:10:07;20.60;82.30
60313;DHT22;46158;52.850;6.970;2022-08-19T09:15:15;20.70;82.20
60313;DHT22;46158;52.850;6.970;2022-08-19T09:17:43;20.70;82.20
60313;DHT22;46158;52.850;6.970;2022-08-19T09:22:36;20.70;82.10
60313;DHT22;46158;52.850;6.970;2022-08-19T09:25:03;20.70;82.10
60313;DHT22;46158;52.850;6.970;2022-08-19T09:27:30;20.70;82.20
60313;DHT22;46158;52.850;6.970;2022-08-19T09:29:57;20.70;82.10
60313;DHT22;46158;52.850;6.970;2022-08-19T09:32:24;20.70;82.20
60313;DHT22;46158;52.850;6.970;2022-08-19T09:34:51;20.80;82.30
60313;DHT22;46158;52.850;6.970;2022-08-19T09:37:20;20.80;82.30
60313;DHT22;46158;52.850;6.970;2022-08-19T09:39:47;20.80;82.20
60313;DHT22;46158;52.850;6.970;2022-08-19T09:42:12;20.80;82.20
60313;DHT22;46158;52.850;6.970;2022-08-19T09:44:40;20.80;82.20
60313;DHT22;46158;52.850;6.970;2022-08-19T09:47:07;20.80;82.20
60313;DHT22;46158;52.850;6.970;2022-08-19T09:49:34;20.80;82.20
60313;DHT22;46158;52.850;6.970;2022-08-19T09:52:00;20.80;82.20
60313;DHT22;46158;52.850;6.970;2022-08-19T09:54:26;20.80;82.30
60313;DHT22;46158;52.850;6.970;2022-08-19T09:56:53;20.90;82.40
60313;DHT22;46158;52.850;6.970;2022-08-19T09:59:19;20.90;82.30
60313;DHT22;46158;52.850;6.970;2022-08-19T10:01:45;20.90;82.30
60313;DHT22;46158;52.850;6.970;2022-08-19T10:04:11;20.90;82.30
60313;DHT22;46158;52.850;6.970;2022-08-19T10:06:38;20.90;82.30
60313;DHT22;46158;52.850;6.970;2022-08-19T10:09:06;20.90;82.30
60313;DHT22;46158;52.850;6.970;2022-08-19T10:11:35;20.90;82.30
60313;DHT22;46158;52.850;6.970;2022-08-19T10:14:04;20.90;82.30
60313;DHT22;46158;52.850;6.970;2022-08-19T10:16:31;20.90;82.30
60313;DHT22;46158;52.850;6.970;2022-08-19T10:18:57;20.90;82.30
60313;DHT22;46158;52.850;6.970;2022-08-19T10:21:26;21.00;82.40
60313;DHT22;46158;52.850;6.970;2022-08-19T10:23:54;21.00;82.40
60313;DHT22;46158;52.850;6.970;2022-08-19T10:26:25;21.00;82.40
60313;DHT22;46158;52.850;6.970;2022-08-19T10:28:51;21.00;83.10
60313;DHT22;46158;52.850;6.970;2022-08-19T10:31:25;21.00;82.20
60313;DHT22;46158;52.850;6.970;2022-08-19T10:33:52;21.00;82.20
60313;DHT22;46158;52.850;6.970;2022-08-19T10:36:25;21.00;82.30
60313;DHT22;46158;52.850;6.970;2022-08-19T10:38:53;21.00;82.20
60313;DHT22;46158;52.850;6.970;2022-08-19T10:41:23;21.00;82.20
60313;DHT22;46158;52.850;6.970;2022-08-19T10:43:56;21.10;82.20
60313;DHT22;46158;52.850;6.970;2022-08-19T10:46:24;21.10;82.10
60313;DHT22;46158;52.850;6.970;2022-08-19T10:48:51;21.10;82.20
60313;DHT22;46158;52.850;6.970;2022-08-19T10:51:17;21.10;82.20
60313;DHT22;46158;52.850;6.970;2022-08-19T10:54:03;21.10;82.10
60313;DHT22;46158;52.850;6.970;2022-08-19T10:56:29;21.10;82.10
60313;DHT22;46158;52.850;6.970;2022-08-19T10:59:15;21.10;82.10
60313;DHT22;46158;52.850;6.970;2022-08-19T11:01:43;21.10;82.10
60313;DHT22;46158;52.850;6.970;2022-08-19T11:04:09;21.10;82.20
60313;DHT22;46158;52.850;6.970;2022-08-19T11:06:37;21.20;82.20
60313;DHT22;46158;52.850;6.970;2022-08-19T11:09:04;21.20;82.20
60313;DHT22;46158;52.850;6.970;2022-08-19T11:11:31;21.20;82.20
60313;DHT22;46158;52.850;6.970;2022-08-19T11:13:57;21.20;82.10
60313;DHT22;46158;52.850;6.970;2022-08-19T11:16:26;21.30;82.10
60313;DHT22;46158;52.850;6.970;2022-08-19T11:18:58;21.30;82.10
60313;DHT22;46158;52.850;6.970;2022-08-19T11:21:30;21.30;82.10
60313;DHT22;46158;52.850;6.970;2022-08-19T11:24:06;21.20;82.00
60313;DHT22;46158;52.850;6.970;2022-08-19T11:26:35;21.30;82.10
60313;DHT22;46158;52.850;6.970;2022-08-19T11:29:01;21.20;82.10
60313;DHT22;46158;52.850;6.970;2022-08-19T11:31:29;21.20;82.80
60313;DHT22;46158;52.850;6.970;2022-08-19T11:34:00;21.30;82.10
60313;DHT22;46158;52.850;6.970;2022-08-19T11:36:29;21.30;82.10
60313;DHT22;46158;52.850;6.970;2022-08-19T11:38:55;21.30;82.10
60313;DHT22;46158;52.850;6.970;2022-08-19T11:41:23;21.20;82.00
60313;DHT22;46158;52.850;6.970;2022-08-19T11:43:50;21.30;82.10
60313;DHT22;46158;52.850;6.970;2022-08-19T11:46:18;21.30;82.20
60313;DHT22;46158;52.850;6.970;2022-08-19T11:48:44;21.30;82.10
60313;DHT22;46158;52.850;6.970;2022-08-19T11:51:17;21.30;82.10
60313;DHT22;46158;52.850;6.970;2022-08-19T11:53:44;21.30;82.00
60313;DHT22;46158;52.850;6.970;2022-08-19T11:56:11;21.30;82.00
60313;DHT22;46158;52.850;6.970;2022-08-19T11:58:37;21.30;82.00
60313;DHT22;46158;52.850;6.970;2022-08-19T12:01:17;21.30;82.00
60313;DHT22;46158;52.850;6.970;2022-08-19T12:03:45;21.40;82.10
60313;DHT22;46158;52.850;6.970;2022-08-19T12:06:17;21.30;82.00
60313;DHT22;46158;52.850;6.970;2022-08-19T12:08:44;21.30;82.00
60313;DHT22;46158;52.850;6.970;2022-08-19T12:11:12;21.30;82.00
60313;DHT22;46158;52.850;6.970;2022-08-19T12:13:39;21.40;82.00
60313;DHT22;46158;52.850;6.970;2022-08-19T12:16:14;21.40;82.00
60313;DHT22;46158;52.850;6.970;2022-08-19T12:18:41;21.40;81.90
60313;DHT22;46158;52.850;6.970;2022-08-19T12:21:10;21.30;81.90
60313;DHT22;46158;52.850;6.970;2022-08-19T12:23:39;21.40;81.90
60313;DHT22;46158;52.850;6.970;2022-08-19T12:26:05;21.30;81.80
60313;DHT22;46158;52.850;6.970;2022-08-19T12:28:30;21.40;81.90
60313;DHT22;46158;52.850;6.970;2022-08-19T12:30:56;21.40;81.90
60313;DHT22;46158;52.850;6.970;2022-08-19T12:33:23;21.40;81.80
60313;DHT22;46158;52.850;6.970;2022-08-19T12:35:51;21.40;81.80
60313;DHT22;46158;52.850;6.970;2022-08-19T12:38:17;21.40;81.70
60313;DHT22;46158;52.850;6.970;2022-08-19T12:40:47;21.40;81.70
60313;DHT22;46158;52.850;6.970;2022-08-19T12:43:14;21.50;81.70
60313;DHT22;46158;52.850;6.970;2022-08-19T12:45:41;21.50;81.70
60313;DHT22;46158;52.850;6.970;2022-08-19T12:48:08;21.50;81.70
60313;DHT22;46158;52.850;6.970;2022-08-19T12:50:34;21.50;81.60
60313;DHT22;46158;52.850;6.970;2022-08-19T12:53:00;21.50;81.60
60313;DHT22;46158;52.850;6.970;2022-08-19T12:55:26;21.50;81.60
60313;DHT22;46158;52.850;6.970;2022-08-19T12:57:53;21.50;81.60
60313;DHT22;46158;52.850;6.970;2022-08-19T13:00:21;21.50;81.60
60313;DHT22;46158;52.850;6.970;2022-08-19T13:02:49;21.50;81.60
60313;DHT22;46158;52.850;6.970;2022-08-19T13:05:21;21.60;81.60
60313;DHT22;46158;52.850;6.970;2022-08-19T13:07:49;21.60;81.60
60313;DHT22;46158;52.850;6.970;2022-08-19T13:10:18;21.60;81.50
60313;DHT22;46158;52.850;6.970;2022-08-19T13:12:46;21.60;81.50
60313;DHT22;46158;52.850;6.970;2022-08-19T13:15:13;21.60;81.50
60313;DHT22;46158;52.850;6.970;2022-08-19T13:17:39;21.60;81.50
60313;DHT22;46158;52.850;6.970;2022-08-19T13:20:09;21.60;81.40
60313;DHT22;46158;52.850;6.970;2022-08-19T13:22:36;21.60;81.40
60313;DHT22;46158;52.850;6.970;2022-08-19T13:25:07;21.60;81.30
60313;DHT22;46158;52.850;6.970;2022-08-19T13:27:33;21.60;81.40
60313;DHT22;46158;52.850;6.970;2022-08-19T13:29:59;21.70;81.30
60313;DHT22;46158;52.850;6.970;2022-08-19T13:32:43;21.70;81.30
60313;DHT22;46158;52.850;6.970;2022-08-19T13:35:28;21.70;81.20
60313;DHT22;46158;52.850;6.970;2022-08-19T13:37:53;21.60;81.10
60313;DHT22;46158;52.850;6.970;2022-08-19T13:40:22;21.70;81.10
60313;DHT22;46158;52.850;6.970;2022-08-19T13:42:51;21.70;81.80
60313;DHT22;46158;52.850;6.970;2022-08-19T13:45:20;21.70;81.10
60313;DHT22;46158;52.850;6.970;2022-08-19T13:47:46;21.70;81.00
60313;DHT22;46158;52.850;6.970;2022-08-19T13:50:20;21.70;81.10
60313;DHT22;46158;52.850;6.970;2022-08-19T13:52:47;21.70;81.00
60313;DHT22;46158;52.850;6.970;2022-08-19T13:55:14;21.70;81.00
60313;DHT22;46158;52.850;6.970;2022-08-19T13:57:41;21.70;81.00
60313;DHT22;46158;52.850;6.970;2022-08-19T14:00:13;21.70;80.90
60313;DHT22;46158;52.850;6.970;2022-08-19T14:02:40;21.70;80.70
60313;DHT22;46158;52.850;6.970;2022-08-19T14:05:09;21.70;80.70
60313;DHT22;46158;52.850;6.970;2022-08-19T14:07:35;21.70;80.60
60313;DHT22;46158;52.850;6.970;2022-08-19T14:10:03;21.70;80.60
60313;DHT22;46158;52.850;6.970;2022-08-19T14:12:30;21.70;80.50
60313;DHT22;46158;52.850;6.970;2022-08-19T14:14:57;21.70;80.40
60313;DHT22;46158;52.850;6.970;2022-08-19T14:17:23;21.70;80.40
60313;DHT22;46158;52.850;6.970;2022-08-19T14:19:56;21.70;80.30
60313;DHT22;46158;52.850;6.970;2022-08-19T14:22:21;21.80;80.40
60313;DHT22;46158;52.850;6.970;2022-08-19T14:24:47;21.80;80.30
60313;DHT22;46158;52.850;6.970;2022-08-19T14:27:13;21.80;80.30
60313;DHT22;46158;52.850;6.970;2022-08-19T14:29:39;21.80;80.20
60313;DHT22;46158;52.850;6.970;2022-08-19T14:32:05;21.80;80.20
60313;DHT22;46158;52.850;6.970;2022-08-19T14:34:31;21.80;80.20
60313;DHT22;46158;52.850;6.970;2022-08-19T14:36:57;21.80;80.10
60313;DHT22;46158;52.850;6.970;2022-08-19T14:39:23;21.80;80.10
60313;DHT22;46158;52.850;6.970;2022-08-19T14:41:49;21.80;79.90
60313;DHT22;46158;52.850;6.970;2022-08-19T14:44:14;21.90;80.00
60313;DHT22;46158;52.850;6.970;2022-08-19T14:46:40;21.90;79.90
60313;DHT22;46158;52.850;6.970;2022-08-19T14:49:06;21.90;79.80
60313;DHT22;46158;52.850;6.970;2022-08-19T14:51:33;21.90;79.90
60313;DHT22;46158;52.850;6.970;2022-08-19T14:53:58;21.90;79.80
60313;DHT22;46158;52.850;6.970;2022-08-19T14:56:27;21.90;80.50
60313;DHT22;46158;52.850;6.970;2022-08-19T14:58:54;21.90;79.80
60313;DHT22;46158;52.850;6.970;2022-08-19T15:01:21;21.90;79.80
60313;DHT22;46158;52.850;6.970;2022-08-19T15:03:48;21.90;79.80
60313;DHT22;46158;52.850;6.970;2022-08-19T15:06:14;21.90;79.80
60313;DHT22;46158;52.850;6.970;2022-08-19T15:08:41;21.80;79.70
60313;DHT22;46158;52.850;6.970;2022-08-19T15:11:14;21.80;79.70
60313;DHT22;46158;52.850;6.970;2022-08-19T15:13:41;21.90;79.80
60313;DHT22;46158;52.850;6.970;2022-08-19T15:16:08;21.90;79.80
60313;DHT22;46158;52.850;6.970;2022-08-19T15:18:34;21.90;79.80
60313;DHT22;46158;52.850;6.970;2022-08-19T15:21:01;21.90;79.80
60313;DHT22;46158;52.850;6.970;2022-08-19T15:23:27;21.90;79.90
60313;DHT22;46158;52.850;6.970;2022-08-19T15:25:53;21.90;79.80
60313;DHT22;46158;52.850;6.970;2022-08-19T15:28:21;21.90;79.90
60313;DHT22;46158;52.850;6.970;2022-08-19T15:30:47;21.90;79.90
60313;DHT22;46158;52.850;6.970;2022-08-19T15:33:13;21.90;79.80
60313;DHT22;46158;52.850;6.970;2022-08-19T15:35:43;21.90;79.80
60313;DHT22;46158;52.850;6.970;2022-08-19T15:38:09;21.90;79.90
60313;DHT22;46158;52.850;6.970;2022-08-19T15:40:38;21.90;79.90
60313;DHT22;46158;52.850;6.970;2022-08-19T15:43:04;21.90;80.00
60313;DHT22;46158;52.850;6.970;2022-08-19T15:45:29;21.90;80.00
60313;DHT22;46158;52.850;6.970;2022-08-19T15:48:02;21.90;80.20